Time;durP1;ratioP1;P1;durP2;ratioP2;P2;SDS_P1;SDS_P2;PMS_P1;PMS_P2;Temp;Humidity;BMP_temperature;BMP_pressure;BME280_temperature;BME280_humidity;BME280_pressure;Samples;Min_cycle;Max_cycle;Signal;HPM_P1;HPM_P2
2021/07/15 00:01:54;;;;;;;15.00;7.47;;;;;;;24.32;62.32;100976.42;1823029;77;25667;-60
2021/07/15 00:04:21;;;;;;;14.98;8.10;;;;;;;24.27;62.41;100972.65;1823090;78;28140;-60
2021/07/15 00:06:49;;;;;;;19.32;7.10;;;;;;;24.23;62.48;100972.26;1822840;78;27250;-60
2021/07/15 00:09:16;;;;;;;18.17;7.22;;;;;;;24.20;62.88;100976.81;1815557;77;25977;-60
2021/07/15 00:11:47;;;;;;;15.03;6.92;;;;;;;24.17;62.85;100975.87;1828457;78;25803;-60
2021/07/15 00:14:20;;;;;;;16.93;7.28;;;;;;;24.17;63.03;100975.36;1828348;78;25799;-61
2021/07/15 00:16:53;;;;;;;10.53;7.33;;;;;;;24.17;63.10;100979.99;1821605;78;28134;-60
2021/07/15 00:19:22;;;;;;;18.70;8.05;;;;;;;24.17;63.28;100973.13;1813145;78;33170;-61
2021/07/15 00:21:50;;;;;;;19.48;7.03;;;;;;;24.17;63.31;100979.48;1838220;77;25704;-61
2021/07/15 00:24:18;;;;;;;16.55;7.78;;;;;;;24.15;63.36;100970.61;1835565;77;26478;-61
2021/07/15 00:26:46;;;;;;;11.83;6.97;;;;;;;24.14;63.87;100968.09;1835793;77;25828;-61
2021/07/15 00:29:14;;;;;;;19.90;6.67;;;;;;;24.10;64.42;100962.20;1808501;79;27485;-61
2021/07/15 00:31:41;;;;;;;16.40;6.92;;;;;;;23.98;63.79;100973.03;1808516;78;25660;-61
2021/07/15 00:34:09;;;;;;;16.07;7.15;;;;;;;23.93;63.99;100972.83;1808792;79;25685;-60
2021/07/15 00:36:36;;;;;;;19.73;7.47;;;;;;;23.88;63.80;100969.91;1820285;77;26414;-61
2021/07/15 00:39:06;;;;;;;16.50;7.42;;;;;;;23.87;64.02;100974.55;1848278;77;26406;-61
2021/07/15 00:41:34;;;;;;;15.40;7.03;;;;;;;23.86;64.04;100966.53;1848299;77;28136;-60
2021/07/15 00:44:01;;;;;;;11.68;6.40;;;;;;;23.87;64.03;100969.05;1848786;77;25754;-60
2021/07/15 00:46:29;;;;;;;25.02;6.50;;;;;;;23.89;64.38;100965.56;1848326;77;25762;-61
2021/07/15 00:48:56;;;;;;;17.73;7.08;;;;;;;23.90;64.05;100966.39;1848659;77;25799;-61
2021/07/15 00:51:25;;;;;;;14.98;6.85;;;;;;;23.91;64.05;100962.07;1848447;77;25769;-61
2021/07/15 00:53:52;;;;;;;19.57;6.62;;;;;;;23.93;63.90;100965.96;1848679;77;27500;-60
2021/07/15 00:56:19;;;;;;;14.50;6.37;;;;;;;23.91;63.76;100959.84;1848532;77;25488;-61
2021/07/15 00:58:46;;;;;;;19.90;6.83;;;;;;;23.91;63.81;100973.58;1849011;77;25707;-61
2021/07/15 01:01:13;;;;;;;20.90;6.85;;;;;;;23.91;63.98;100963.45;1848592;77;25800;-60
2021/07/15 01:03:41;;;;;;;15.20;7.78;;;;;;;23.91;64.54;100958.47;1848756;77;25760;-60
2021/07/15 01:06:08;;;;;;;21.82;7.30;;;;;;;23.89;63.90;100961.98;1848537;77;28654;-61
2021/07/15 01:08:35;;;;;;;16.27;7.45;;;;;;;23.87;63.92;100967.68;1848205;77;25804;-61
2021/07/15 01:11:07;;;;;;;17.92;7.08;;;;;;;23.80;65.03;100967.42;1848215;77;25684;-61
2021/07/15 01:13:48;;;;;;;23.18;7.60;;;;;;;23.64;64.61;100962.73;1817035;78;25874;-60
2021/07/15 01:16:32;;;;;;;24.00;7.45;;;;;;;23.55;64.61;100959.41;1818639;78;26453;-60
2021/07/15 01:19:28;;;;;;;11.97;7.08;;;;;;;23.50;64.58;100961.12;1824970;77;27461;-60
2021/07/15 01:22:09;;;;;;;14.45;6.95;;;;;;;23.44;64.37;100958.70;1836478;77;26103;-61
2021/07/15 01:25:30;;;;;;;21.60;7.17;;;;;;;23.39;64.48;100953.87;1848043;76;25437;-61
2021/07/15 01:28:17;;;;;;;21.50;7.30;;;;;;;23.37;64.34;100963.39;1779384;80;26193;-61
2021/07/15 01:30:52;;;;;;;16.48;6.80;;;;;;;23.29;64.56;100966.69;1848538;77;25715;-61
2021/07/15 01:33:23;;;;;;;15.88;5.97;;;;;;;23.28;64.74;100969.63;1841338;76;27510;-58
2021/07/15 01:35:55;;;;;;;20.70;6.58;;;;;;;23.25;64.70;100962.68;1840038;77;25813;-59
2021/07/15 01:38:32;;;;;;;16.12;6.60;;;;;;;23.24;64.77;100967.02;1848483;77;26341;-58
2021/07/15 01:41:06;;;;;;;17.77;6.12;;;;;;;23.23;64.77;100970.81;1848596;77;25762;-61
2021/07/15 01:43:44;;;;;;;14.13;6.17;;;;;;;23.21;65.00;100973.79;1848651;77;25679;-61
2021/07/15 01:46:13;;;;;;;15.45;6.28;;;;;;;23.21;64.91;100966.07;1828414;77;27562;-61
2021/07/15 01:48:42;;;;;;;13.25;6.05;;;;;;;23.22;64.91;100963.64;1838099;77;25817;-62
2021/07/15 01:51:11;;;;;;;16.85;7.12;;;;;;;23.24;64.89;100957.41;1847880;77;25781;-61
2021/07/15 01:53:40;;;;;;;27.82;7.50;;;;;;;23.26;65.02;100956.67;1848526;77;25742;-61
2021/07/15 01:56:10;;;;;;;21.57;6.67;;;;;;;23.25;64.73;100961.30;1835579;76;25758;-61
2021/07/15 01:58:41;;;;;;;14.68;5.60;;;;;;;23.27;64.78;100958.33;1832512;77;27563;-61
2021/07/15 02:01:11;;;;;;;20.88;6.45;;;;;;;23.28;64.67;100954.02;1834506;76;27249;-61
2021/07/15 02:03:43;;;;;;;15.10;5.65;;;;;;;23.24;65.01;100951.92;1841210;77;25713;-61
2021/07/15 02:06:12;;;;;;;24.37;6.40;;;;;;;23.19;64.63;100951.20;1836354;77;25833;-61
2021/07/15 02:08:42;;;;;;;14.47;6.15;;;;;;;23.16;64.69;100954.88;1834768;78;26465;-61
2021/07/15 02:11:10;;;;;;;17.80;6.05;;;;;;;23.14;64.80;100955.94;1834671;78;27512;-61
2021/07/15 02:13:38;;;;;;;17.32;6.08;;;;;;;23.09;64.76;100955.72;1834804;76;25714;-59
2021/07/15 02:16:07;;;;;;;29.18;6.22;;;;;;;23.06;64.75;100952.56;1845329;77;25749;-61
2021/07/15 02:18:34;;;;;;;19.15;5.87;;;;;;;23.03;64.83;100957.95;1833986;77;25696;-61
2021/07/15 02:21:03;;;;;;;12.25;6.30;;;;;;;23.02;64.79;100952.16;1800563;79;26212;-61
2021/07/15 02:23:31;;;;;;;13.15;5.95;;;;;;;23.02;64.66;100950.78;1806892;79;27363;-61
2021/07/15 02:25:59;;;;;;;37.83;6.08;;;;;;;23.01;64.85;100951.83;1832313;78;25879;-61
2021/07/15 02:28:27;;;;;;;11.35;5.10;;;;;;;23.02;64.84;100949.41;1839435;78;25520;-61
2021/07/15 02:31:02;;;;;;;13.85;5.90;;;;;;;23.04;64.74;100952.79;1839612;78;26473;-61
2021/07/15 02:33:31;;;;;;;16.20;6.00;;;;;;;23.03;64.80;100946.98;1838519;78;25776;-61
2021/07/15 02:36:02;;;;;;;14.55;5.87;;;;;;;23.02;64.64;100945.84;1839406;78;27461;-61
2021/07/15 02:38:32;;;;;;;19.52;6.47;;;;;;;22.97;64.60;100944.56;1839431;78;25802;-61
2021/07/15 02:40:59;;;;;;;28.05;6.75;;;;;;;22.98;64.67;100950.91;1839687;77;25528;-61
2021/07/15 02:43:27;;;;;;;11.38;6.00;;;;;;;22.98;64.66;100952.28;1839747;77;26542;-61
2021/07/15 02:45:54;;;;;;;23.45;7.22;;;;;;;22.95;64.47;100943.93;1829820;78;25628;-61
2021/07/15 02:48:21;;;;;;;19.02;6.60;;;;;;;22.90;64.50;100948.41;1833437;78;28150;-61
2021/07/15 02:50:48;;;;;;;22.75;5.95;;;;;;;22.85;64.69;100952.30;1802561;79;25612;-61
2021/07/15 02:53:15;;;;;;;23.38;6.08;;;;;;;22.81;64.61;100945.02;1802396;79;25782;-61
2021/07/15 02:55:48;;;;;;;14.43;6.55;;;;;;;22.77;64.62;100946.52;1800602;78;25797;-61
2021/07/15 02:58:26;;;;;;;19.20;6.90;;;;;;;22.74;64.63;100945.56;1814212;78;25686;-61
2021/07/15 03:01:00;;;;;;;17.48;6.10;;;;;;;22.72;64.63;100944.42;1839479;77;27396;-61
2021/07/15 03:04:06;;;;;;;21.68;6.10;;;;;;;22.68;64.69;100945.89;1840010;76;25471;-61
2021/07/15 03:06:37;;;;;;;13.38;6.12;;;;;;;22.69;64.89;100949.45;1839320;76;25711;-61
2021/07/15 03:09:18;;;;;;;15.95;5.85;;;;;;;22.66;64.93;100947.48;1839553;78;25709;-61
2021/07/15 03:12:00;;;;;;;15.48;6.25;;;;;;;22.69;65.13;100948.09;1838800;78;25704;-61
2021/07/15 03:14:34;;;;;;;13.60;6.30;;;;;;;22.72;65.31;100950.41;1836492;78;28353;-61
2021/07/15 03:17:02;;;;;;;;;;;;;;;22.73;65.41;100947.99;1835997;78;25860;-62
2021/07/15 03:19:34;;;;;;;23.77;6.00;;;;;;;22.74;65.16;100951.05;1839860;78;25738;-61
2021/07/15 03:22:05;;;;;;;14.25;6.08;;;;;;;22.77;65.48;100950.09;1832330;77;25779;-61
2021/07/15 03:24:37;;;;;;;18.17;6.70;;;;;;;22.81;65.31;100955.48;1828362;78;25686;-61
2021/07/15 03:27:05;;;;;;;18.10;6.40;;;;;;;22.83;65.32;100954.72;1828476;78;27430;-61
2021/07/15 03:29:36;;;;;;;17.98;6.00;;;;;;;22.88;65.38;100953.25;1827410;78;26563;-61
2021/07/15 03:32:06;;;;;;;13.22;5.85;;;;;;;22.94;65.42;100951.02;1828258;78;25675;-61
2021/07/15 03:34:35;;;;;;;23.85;5.90;;;;;;;23.02;65.41;100952.16;1831644;78;26438;-61
2021/07/15 03:37:04;;;;;;;19.87;6.45;;;;;;;23.08;65.33;100951.31;1823673;78;26067;-61
2021/07/15 03:39:32;;;;;;;60.43;8.13;;;;;;;23.14;65.18;100950.95;1823218;77;27079;-61
2021/07/15 03:42:00;;;;;;;47.27;6.62;;;;;;;23.20;65.19;100957.00;1822917;78;25684;-61
2021/07/15 03:44:28;;;;;;;50.30;7.03;;;;;;;23.26;65.02;100955.30;1823768;77;25737;-61
2021/07/15 03:46:56;;;;;;;38.35;7.70;;;;;;;23.33;64.98;100952.00;1832335;78;25771;-59
2021/07/15 03:49:29;;;;;;;24.98;6.10;;;;;;;23.41;64.74;100951.75;1828606;78;25739;-61
2021/07/15 03:51:59;;;;;;;29.85;6.33;;;;;;;23.48;64.78;100953.62;1828278;77;27488;-61
2021/07/15 03:54:27;;;;;;;29.10;6.40;;;;;;;23.55;64.60;100958.55;1828370;78;25855;-61
2021/07/15 03:56:55;;;;;;;41.55;7.05;;;;;;;23.60;64.40;100955.46;1828261;78;25797;-60
2021/07/15 03:59:22;;;;;;;53.70;8.10;;;;;;;23.68;64.16;100963.13;1823935;78;26424;-59
2021/07/15 04:01:57;;;;;;;39.85;6.72;;;;;;;23.72;63.88;100956.16;1795397;78;25795;-60
2021/07/15 04:04:29;;;;;;;31.97;8.03;;;;;;;23.78;63.70;100967.62;1794272;80;27464;-60
2021/07/15 04:07:00;;;;;;;54.75;8.35;;;;;;;23.81;63.54;100961.70;1821787;78;25816;-61
2021/07/15 04:09:30;;;;;;;26.62;8.30;;;;;;;23.84;63.42;100964.02;1828055;78;25476;-60
2021/07/15 04:11:59;;;;;;;42.43;9.10;;;;;;;23.87;63.30;100968.23;1828184;78;26473;-60
2021/07/15 04:15:02;;;;;;;30.02;7.97;;;;;;;23.90;63.23;100963.64;1828293;78;25663;-61
2021/07/15 04:17:52;;;;;;;37.67;8.65;;;;;;;23.88;63.04;100963.05;1814783;77;27476;-60
2021/07/15 04:20:22;;;;;;;46.02;8.33;;;;;;;23.89;63.20;100966.94;1805503;78;25454;-60
2021/07/15 04:22:53;;;;;;;27.85;8.50;;;;;;;23.91;63.19;100966.19;1807249;77;25786;-60
2021/07/15 04:25:23;;;;;;;37.23;7.95;;;;;;;23.94;63.18;100967.68;1821501;77;25778;-61
2021/07/15 04:27:53;;;;;;;45.73;8.20;;;;;;;23.97;63.22;100963.64;1785489;78;25696;-60
2021/07/15 04:30:22;;;;;;;38.90;7.78;;;;;;;24.00;63.19;100972.28;1820896;78;27640;-60
2021/07/15 04:33:10;;;;;;;41.18;7.95;;;;;;;24.01;63.43;100971.23;1822886;77;25879;-60
2021/07/15 04:35:39;;;;;;;38.60;7.80;;;;;;;24.04;63.76;100966.67;1824754;77;25734;-60
2021/07/15 04:38:07;;;;;;;39.92;7.97;;;;;;;24.09;63.78;100967.38;1827946;78;25793;-61
2021/07/15 04:40:35;;;;;;;38.30;10.28;;;;;;;24.16;63.71;100965.97;1828708;78;25690;-60
2021/07/15 04:43:06;;;;;;;39.75;9.43;;;;;;;24.23;63.77;100967.59;1827863;78;28153;-60
2021/07/15 04:45:39;;;;;;;38.92;8.85;;;;;;;24.31;63.63;100976.11;1828397;78;25762;-60
2021/07/15 04:48:08;;;;;;;44.88;8.13;;;;;;;24.38;63.47;100974.14;1824561;77;32450;-60
2021/07/15 04:50:37;;;;;;;37.15;7.78;;;;;;;24.45;63.51;100975.47;1828152;78;25735;-60
2021/07/15 04:53:08;;;;;;;45.80;7.83;;;;;;;24.50;63.46;100971.50;1795679;79;25973;-60
2021/07/15 04:55:38;;;;;;;26.87;7.80;;;;;;;24.57;63.41;100976.09;1795268;79;27485;-60
2021/07/15 04:58:06;;;;;;;34.65;7.62;;;;;;;24.63;63.43;100977.42;1795767;79;25822;-60
2021/07/15 05:00:36;;;;;;;36.53;8.63;;;;;;;24.68;63.12;100973.52;1795615;79;25791;-60
2021/07/15 05:03:32;;;;;;;32.63;9.35;;;;;;;24.69;63.01;100978.47;1801217;78;26507;-60
2021/07/15 05:06:00;;;;;;;28.92;8.00;;;;;;;24.74;63.00;100970.39;1827982;77;25983;-60
2021/07/15 05:08:27;;;;;;;22.93;7.92;;;;;;;24.83;62.98;100980.56;1828018;78;27514;-60
2021/07/15 05:10:55;;;;;;;23.27;7.70;;;;;;;24.91;62.87;100978.06;1828023;78;25779;-59
2021/07/15 05:13:22;;;;;;;26.30;6.53;;;;;;;24.95;62.86;100976.01;1828277;78;25716;-61
2021/07/15 05:15:52;;;;;;;21.02;6.97;;;;;;;24.99;62.79;100980.52;1729568;77;25749;-63
2021/07/15 05:18:20;;;;;;;25.02;6.00;;;;;;;25.02;62.55;100975.09;1808108;78;25738;-62
2021/07/15 05:20:49;;;;;;;21.45;6.42;;;;;;;24.99;62.40;100971.71;1805723;77;27445;-61
2021/07/15 05:23:20;;;;;;;18.92;6.80;;;;;;;24.98;62.18;100971.95;1817937;78;27173;-61
2021/07/15 05:25:52;;;;;;;25.92;5.95;;;;;;;24.99;62.17;100981.89;1820078;78;25803;-61
2021/07/15 05:28:20;;;;;;;36.58;6.37;;;;;;;24.98;61.92;100984.34;1820520;77;25885;-61
2021/07/15 05:30:47;;;;;;;19.48;5.50;;;;;;;24.97;61.76;100985.40;1817707;77;25754;-61
2021/07/15 05:33:14;;;;;;;24.47;5.75;;;;;;;24.96;61.52;100988.70;1829985;77;27448;-60
2021/07/15 05:35:43;;;;;;;21.95;6.30;;;;;;;24.98;61.97;100986.53;1848421;77;25645;-60
2021/07/15 05:38:10;;;;;;;20.35;5.78;;;;;;;25.03;62.06;100991.91;1848217;77;25753;-61
2021/07/15 05:40:37;;;;;;;16.85;5.50;;;;;;;25.07;61.70;100986.23;1848647;77;25808;-61
2021/07/15 05:43:05;;;;;;;20.17;5.70;;;;;;;25.12;61.88;100983.66;1848052;77;25983;-60
2021/07/15 05:45:32;;;;;;;22.93;5.05;;;;;;;25.16;61.73;100984.88;1838047;77;27522;-61
2021/07/15 05:47:59;;;;;;;18.82;6.22;;;;;;;25.23;61.56;100987.04;1814909;79;25832;-61
2021/07/15 05:50:26;;;;;;;35.23;6.37;;;;;;;25.31;61.60;100983.98;1814962;78;25707;-61
2021/07/15 05:52:53;;;;;;;29.12;6.17;;;;;;;25.41;61.71;100984.02;1815021;78;25794;-60
2021/07/15 05:55:22;;;;;;;21.82;6.37;;;;;;;25.49;61.35;100983.70;1815164;78;25750;-61
2021/07/15 05:57:49;;;;;;;34.88;8.03;;;;;;;25.55;61.14;100978.63;1815504;78;28282;-61
2021/07/15 06:00:18;;;;;;;38.70;9.03;;;;;;;25.61;60.97;100980.45;1824380;77;25809;-61
2021/07/15 06:02:45;;;;;;;26.57;7.53;;;;;;;25.68;60.74;100987.81;1845101;77;25735;-61
2021/07/15 06:05:12;;;;;;;39.95;7.30;;;;;;;25.73;60.47;100981.88;1834594;76;26554;-61
2021/07/15 06:07:39;;;;;;;33.90;6.80;;;;;;;25.79;60.14;100985.63;1834579;76;26339;-61
2021/07/15 06:10:08;;;;;;;30.80;6.67;;;;;;;25.84;60.18;100982.17;1834510;76;27363;-60
2021/07/15 06:12:35;;;;;;;31.33;7.42;;;;;;;25.88;60.02;100982.02;1834724;76;25762;-60
2021/07/15 06:15:04;;;;;;;40.20;7.83;;;;;;;25.91;60.02;100986.52;1836307;77;25700;-61
2021/07/15 06:17:31;;;;;;;64.62;26.17;;;;;;;25.97;60.02;100988.03;1838389;77;25751;-59
2021/07/15 06:19:58;;;;;;;30.92;7.80;;;;;;;26.00;59.94;100989.78;1831540;77;25840;-59
2021/07/15 06:22:25;;;;;;;22.90;6.80;;;;;;;26.05;59.76;100984.94;1810739;77;27458;-59
2021/07/15 06:24:52;;;;;;;30.77;7.78;;;;;;;26.11;59.21;100982.68;1794918;79;25689;-59
2021/07/15 06:27:19;;;;;;;28.10;7.40;;;;;;;26.19;59.25;100982.86;1794720;78;25482;-59
2021/07/15 06:29:46;;;;;;;27.15;7.25;;;;;;;26.23;59.18;100979.95;1806164;78;25795;-59
2021/07/15 06:32:13;;;;;;;20.62;7.33;;;;;;;26.30;59.13;100975.72;1827862;78;25908;-60
2021/07/15 06:34:40;;;;;;;27.02;7.03;;;;;;;26.35;58.96;100968.94;1828176;78;27569;-59
2021/07/15 06:37:09;;;;;;;28.95;7.75;;;;;;;26.42;58.51;100964.14;1828066;78;25818;-59
2021/07/15 06:39:38;;;;;;;31.00;6.95;;;;;;;26.47;58.61;100961.53;1828430;78;25699;-60
2021/07/15 06:42:05;;;;;;;18.35;6.92;;;;;;;26.54;58.66;100962.25;1827937;78;25775;-59
2021/07/15 06:44:32;;;;;;;31.48;6.62;;;;;;;26.62;58.60;100961.08;1825494;78;25767;-59
2021/07/15 06:46:59;;;;;;;22.87;6.17;;;;;;;26.67;58.39;100961.18;1818310;78;27480;-59
2021/07/15 06:49:27;;;;;;;31.95;7.08;;;;;;;26.75;58.33;100962.75;1793923;80;25644;-58
2021/07/15 06:51:55;;;;;;;34.60;6.85;;;;;;;26.82;58.44;100953.84;1811810;78;25687;-58
2021/07/15 06:54:22;;;;;;;23.42;5.85;;;;;;;26.92;58.15;100957.91;1828272;78;25774;-59
2021/07/15 06:56:52;;;;;;;26.00;5.83;;;;;;;27.01;56.68;100955.09;1828047;78;25694;-59
2021/07/15 06:59:18;;;;;;;28.52;6.92;;;;;;;27.09;55.04;100957.47;1828076;77;28194;-59
2021/07/15 07:01:46;;;;;;;35.90;6.70;;;;;;;27.17;54.25;100950.19;1827306;78;25686;-60
2021/07/15 07:04:13;;;;;;;17.07;6.28;;;;;;;27.28;53.97;100948.48;1813731;78;25790;-60
2021/07/15 07:06:39;;;;;;;22.87;5.42;;;;;;;27.43;53.85;100952.70;1793752;80;25797;-60
2021/07/15 07:09:06;;;;;;;16.30;5.47;;;;;;;27.53;53.71;100950.67;1794077;80;25747;-60
2021/07/15 07:11:33;;;;;;;22.07;4.87;;;;;;;27.61;53.36;100943.37;1794055;80;27462;-60
2021/07/15 07:14:00;;;;;;;23.35;5.95;;;;;;;27.69;52.19;100945.73;1793779;80;25811;-61
2021/07/15 07:16:28;;;;;;;15.35;3.05;;;;;;;27.75;51.27;100941.98;1813251;78;25734;-59
2021/07/15 07:18:55;;;;;;;24.57;4.83;;;;;;;27.88;48.39;100945.53;1809166;78;25738;-59
2021/07/15 07:21:24;;;;;;;19.02;3.30;;;;;;;27.99;48.43;100950.17;1828272;77;25846;-59
2021/07/15 07:23:50;;;;;;;15.08;3.12;;;;;;;28.08;47.43;100947.33;1828224;77;27459;-59
2021/07/15 07:26:19;;;;;;;14.07;3.60;;;;;;;28.20;46.82;100951.92;1828030;78;25508;-60
2021/07/15 07:28:46;;;;;;;16.62;3.62;;;;;;;28.29;45.88;100945.45;1827999;78;25747;-60
2021/07/15 07:31:13;;;;;;;29.00;3.33;;;;;;;28.41;43.44;100943.45;1827992;77;26163;-60
2021/07/15 07:33:40;;;;;;;20.43;3.22;;;;;;;28.53;42.98;100945.56;1828518;78;25919;-60
2021/07/15 07:36:08;;;;;;;13.60;3.25;;;;;;;28.62;43.16;100948.76;1828165;78;27486;-60
2021/07/15 07:38:35;;;;;;;16.90;3.35;;;;;;;28.68;42.87;100943.59;1828076;78;25843;-60
2021/07/15 07:41:03;;;;;;;21.95;3.70;;;;;;;28.77;42.01;100947.33;1828324;78;25813;-60
2021/07/15 07:43:30;;;;;;;18.85;3.20;;;;;;;28.83;41.93;100943.53;1828340;78;25786;-60
2021/07/15 07:45:57;;;;;;;17.77;3.27;;;;;;;28.90;41.51;100942.84;1819669;78;25801;-60
2021/07/15 07:48:26;;;;;;;22.95;4.00;;;;;;;28.96;40.78;100944.58;1820382;78;27489;-60
2021/07/15 07:50:53;;;;;;;17.48;3.95;;;;;;;29.06;40.97;100942.48;1828194;78;25792;-59
2021/07/15 07:53:20;;;;;;;24.60;3.77;;;;;;;29.18;40.06;100941.00;1828275;77;25742;-60
2021/07/15 07:55:48;;;;;;;19.48;3.58;;;;;;;29.26;40.44;100941.93;1828179;78;25814;-59
2021/07/15 07:58:15;;;;;;;25.05;3.40;;;;;;;29.34;40.58;100945.66;1828280;78;25750;-59
2021/07/15 08:00:41;;;;;;;11.57;3.15;;;;;;;29.43;39.74;100939.66;1809139;78;28252;-59
2021/07/15 08:03:09;;;;;;;13.38;3.65;;;;;;;29.49;38.84;100946.40;1794223;80;25745;-60
2021/07/15 08:05:39;;;;;;;10.28;3.15;;;;;;;29.58;38.71;100941.78;1793926;80;25755;-59
2021/07/15 08:08:05;;;;;;;13.15;3.17;;;;;;;29.67;37.96;100956.85;1794052;79;26147;-59
2021/07/15 08:10:33;;;;;;;9.58;3.25;;;;;;;29.71;38.69;100945.52;1794310;80;25850;-59
2021/07/15 08:13:00;;;;;;;17.05;4.55;;;;;;;29.77;38.43;100938.92;1794538;79;27414;-59
2021/07/15 08:15:27;;;;;;;12.80;3.33;;;;;;;29.83;38.49;100939.81;1818544;78;25718;-59
2021/07/15 08:17:56;;;;;;;14.15;3.52;;;;;;;29.89;38.91;100933.23;1811722;78;25777;-58
2021/07/15 08:20:22;;;;;;;12.28;3.00;;;;;;;29.97;38.94;100936.09;1826992;78;25797;-58
2021/07/15 08:22:50;;;;;;;20.27;3.08;;;;;;;30.03;37.66;100936.45;1832493;78;25919;-58
2021/07/15 08:25:19;;;;;;;16.07;3.75;;;;;;;30.12;37.25;100943.16;1839707;78;28156;-58
2021/07/15 08:27:47;;;;;;;12.55;3.83;;;;;;;30.21;37.60;100936.59;1839561;78;26340;-59
2021/07/15 08:30:17;;;;;;;11.65;2.95;;;;;;;30.30;37.17;100931.41;1838685;78;25754;-60
2021/07/15 08:32:44;;;;;;;22.90;3.62;;;;;;;30.33;37.55;100923.92;1839410;78;25783;-60
2021/07/15 08:35:12;;;;;;;13.93;3.10;;;;;;;30.41;36.31;100922.61;1839900;78;25863;-60
2021/07/15 08:37:40;;;;;;;28.38;3.67;;;;;;;30.45;36.76;100920.42;1839695;78;27393;-60
2021/07/15 08:40:10;;;;;;;11.20;3.12;;;;;;;30.53;36.35;100924.65;1839627;77;25674;-60
2021/07/15 08:42:39;;;;;;;10.20;3.20;;;;;;;30.63;36.03;100922.52;1829436;78;25661;-60
2021/07/15 08:45:10;;;;;;;17.02;3.40;;;;;;;30.76;35.49;100917.86;1802495;79;25794;-60
2021/07/15 08:47:41;;;;;;;6.53;3.08;;;;;;;30.87;35.04;100916.00;1802508;79;25438;-60
2021/07/15 08:50:11;;;;;;;35.15;3.77;;;;;;;30.97;34.14;100926.88;1831038;78;27516;-61
2021/07/15 08:52:39;;;;;;;17.30;3.45;;;;;;;31.00;34.77;100922.15;1839140;78;25824;-61
2021/07/15 08:57:40;;;;;;;22.17;3.10;;;;;;;31.20;35.28;100918.66;1839422;77;26460;-62
2021/07/15 09:00:12;;;;;;;8.90;2.70;;;;;;;31.35;33.75;100926.22;1840051;77;25747;-61
2021/07/15 09:02:39;;;;;;;11.00;2.85;;;;;;;31.45;32.70;100926.25;1839763;77;27533;-59
2021/07/15 09:05:09;;;;;;;17.25;2.80;;;;;;;31.55;32.13;100928.25;1838576;77;26016;-61
2021/07/15 09:07:39;;;;;;;13.08;2.62;;;;;;;31.65;31.61;100919.08;1839776;78;26293;-60
2021/07/15 09:10:07;;;;;;;10.63;3.05;;;;;;;31.79;31.79;100914.68;1839572;77;26684;-60
2021/07/15 09:12:34;;;;;;;38.58;3.95;;;;;;;31.98;32.14;100915.00;1839548;78;26384;-60
2021/07/15 09:15:06;;;;;;;31.50;3.72;;;;;;;32.14;31.61;100904.68;1839632;77;27486;-60
2021/07/15 09:17:36;;;;;;;15.43;2.72;;;;;;;32.37;30.71;100908.05;1815976;78;25766;-60
2021/07/15 09:20:08;;;;;;;23.27;2.72;;;;;;;32.58;30.34;100906.06;1837506;78;25774;-60
2021/07/15 09:22:59;;;;;;;18.75;3.40;;;;;;;32.78;30.29;100912.73;1818069;78;25869;-60
2021/07/15 09:25:43;;;;;;;14.93;3.10;;;;;;;33.00;29.31;100921.29;1817651;78;26132;-61
2021/07/15 09:28:17;;;;;;;21.95;3.30;;;;;;;33.25;29.04;100917.58;1786992;78;26066;-60
2021/07/15 09:30:45;;;;;;;21.68;3.27;;;;;;;33.49;28.66;100914.13;1817815;78;25707;-60
2021/07/15 09:33:15;;;;;;;16.27;2.37;;;;;;;33.70;28.31;100921.25;1817661;78;26177;-59
2021/07/15 09:35:46;;;;;;;13.78;2.60;;;;;;;33.94;28.06;100924.73;1818671;77;25751;-59
2021/07/15 09:38:22;;;;;;;12.50;2.62;;;;;;;34.17;27.82;100916.17;1845665;77;25472;-60
2021/07/15 09:40:56;;;;;;;28.83;2.55;;;;;;;34.44;27.70;100916.23;1845887;77;27591;-60
2021/07/15 09:43:32;;;;;;;19.37;2.62;;;;;;;34.73;26.57;100925.75;1845331;77;25453;-60
2021/07/15 09:46:17;;;;;;;11.43;2.52;;;;;;;34.98;26.90;100908.44;1845820;77;25762;-60
2021/07/15 09:49:03;;;;;;;13.00;2.58;;;;;;;35.25;26.34;100914.23;1845509;77;25787;-60
2021/07/15 09:51:40;;;;;;;12.65;2.25;;;;;;;35.56;25.33;100913.00;1831144;77;25710;-60
2021/07/15 09:54:09;;;;;;;9.20;2.33;;;;;;;35.81;24.59;100909.54;1837724;77;28174;-60
2021/07/15 09:56:45;;;;;;;13.10;2.20;;;;;;;36.11;24.43;100911.61;1811828;77;26016;-59
2021/07/15 09:59:13;;;;;;;12.95;2.35;;;;;;;36.34;23.94;100902.80;1811932;77;25478;-60
2021/07/15 10:01:47;;;;;;;16.77;2.60;;;;;;;36.58;23.97;100903.23;1808625;79;25791;-60
2021/07/15 10:04:24;;;;;;;11.15;2.15;;;;;;;36.83;24.07;100902.45;1811622;79;25810;-60
2021/07/15 10:06:53;;;;;;;16.67;2.65;;;;;;;37.10;24.03;100901.06;1811729;79;28290;-60
2021/07/15 10:09:33;;;;;;;15.50;1.95;;;;;;;37.45;24.08;100896.97;1830503;77;25812;-61
2021/07/15 10:12:00;;;;;;;15.48;2.45;;;;;;;37.66;23.09;100902.38;1844994;77;25799;-60
2021/07/15 10:14:37;;;;;;;12.85;3.00;;;;;;;38.03;23.01;100894.75;1845332;77;25886;-60
2021/07/15 10:17:06;;;;;;;23.40;3.00;;;;;;;38.36;22.58;100900.68;1833713;77;25750;-61
2021/07/15 10:19:34;;;;;;;20.85;2.40;;;;;;;38.71;21.45;100898.02;1817998;77;28392;-61
2021/07/15 10:22:10;;;;;;;12.40;1.90;;;;;;;39.06;20.64;100898.72;1829270;77;25738;-60
2021/07/15 10:24:41;;;;;;;12.70;2.20;;;;;;;39.38;20.22;100896.66;1841122;77;25742;-60
2021/07/15 10:27:10;;;;;;;32.30;3.27;;;;;;;39.89;20.25;100886.56;1839582;78;25889;-60
2021/07/15 10:29:38;;;;;;;15.70;2.80;;;;;;;40.38;19.56;100884.89;1839486;78;25429;-61
2021/07/15 10:32:09;;;;;;;14.28;2.42;;;;;;;40.71;18.82;100882.62;1839004;78;28101;-61
2021/07/15 10:34:38;;;;;;;12.30;2.65;;;;;;;41.03;17.88;100883.95;1839515;78;25669;-60
2021/07/15 10:37:06;;;;;;;29.65;3.15;;;;;;;41.39;16.62;100873.26;1839254;78;25744;-61
2021/07/15 10:39:37;;;;;;;10.45;2.15;;;;;;;41.42;17.27;100878.22;1839591;78;26484;-61
2021/07/15 10:42:04;;;;;;;27.00;2.60;;;;;;;41.69;16.85;100880.27;1839745;78;25733;-61
2021/07/15 10:44:31;;;;;;;20.02;2.52;;;;;;;42.01;17.16;100880.02;1838577;78;26974;-60
2021/07/15 10:46:58;;;;;;;16.42;2.60;;;;;;;42.36;16.38;100883.89;1839325;78;25816;-61
2021/07/15 10:49:25;;;;;;;9.48;2.75;;;;;;;42.60;16.32;100878.03;1839920;78;25769;-61
2021/07/15 10:51:56;;;;;;;12.15;2.08;;;;;;;42.67;16.18;100882.51;1839668;78;25801;-60
2021/07/15 10:54:24;;;;;;;13.93;2.22;;;;;;;42.61;16.05;100881.10;1839871;78;25813;-60
2021/07/15 10:56:52;;;;;;;14.73;3.05;;;;;;;42.75;15.80;100884.18;1839509;78;28143;-60
2021/07/15 10:59:29;;;;;;;13.93;2.25;;;;;;;42.96;15.59;100883.47;1831144;78;25980;-60
2021/07/15 11:02:01;;;;;;;12.40;2.42;;;;;;;43.24;15.85;100872.83;1802831;78;26115;-60
2021/07/15 11:04:40;;;;;;;11.63;2.40;;;;;;;43.36;15.28;100866.88;1802806;79;25887;-60
2021/07/15 11:07:31;;;;;;;13.70;1.98;;;;;;;43.42;15.69;100871.94;1802705;79;25663;-60
2021/07/15 11:10:21;;;;;;;9.05;2.00;;;;;;;43.73;15.08;100866.77;1802584;79;28334;-61
2021/07/15 11:13:05;;;;;;;14.20;2.62;;;;;;;44.18;14.81;100861.33;1784251;79;26499;-60
2021/07/15 11:15:55;;;;;;;15.10;2.25;;;;;;;44.42;15.07;100860.13;1805385;79;25773;-60
2021/07/15 11:18:50;;;;;;;36.03;4.12;;;;;;;44.73;14.92;100857.85;1818074;78;26520;-60
2021/07/15 11:21:33;;;;;;;11.87;2.50;;;;;;;45.00;14.35;100851.83;1789787;78;25807;-60
2021/07/15 11:24:11;;;;;;;13.72;2.50;;;;;;;44.94;13.89;100858.16;1839643;78;27528;-60
2021/07/15 11:26:43;;;;;;;8.43;1.82;;;;;;;44.91;14.27;100858.31;1836730;78;27227;-60
2021/07/15 11:29:13;;;;;;;15.78;2.55;;;;;;;44.95;14.07;100864.06;1802626;78;25714;-60
2021/07/15 11:31:49;;;;;;;13.03;2.00;;;;;;;44.94;13.98;100856.13;1802889;79;25764;-60
2021/07/15 11:34:43;;;;;;;14.03;3.77;;;;;;;45.22;13.70;100852.92;1802638;79;25735;-60
2021/07/15 11:37:34;;;;;;;16.73;3.35;;;;;;;45.58;13.78;100857.92;1802609;79;27497;-61